Akim Oda, Ghana

4:26 AM GMT on October 02, 2014 (GMT +0000)
Kotoka International | Change Station
CLOSE
Current Station
Airport
Location: Accra,
Elevation: 226 ft
Nearby Weather Stations

Elev 226 ft 5.61 °N, 0.17 °W | Updated 26 minutes ago

Scattered Clouds
Scattered Clouds
75 °F
Feels Like 75 °F
N
6
Wind Variable Wind from WSW

Today
High -- | Low -- °F
--% Chance of Precip.
Yesterday
High -- | Low -- °F
Precip. -- in
5:51 AM 5:55 PM
First Quarter, 54% visible
Pressure 29.92 in
Visibility 6.2 miles
Clouds Scattered Clouds 700 ft
Dew Point 73 °F
Humidity 94%
Rainfall 0.00 in
Snow Depth Not available.
UV 0 out of 12
Pollen Not available.
Air Quality Not available.
Flu Activity Not available.
METAR DGAA 020400Z 25005KT 9999 SCT007 24/23 Q1013 NOSIG

More Conditions Fewer Conditions

Pressure 29.92 in
Visibility 6.2 miles
Clouds Scattered Clouds 700 ft
Dew Point 73 °F
Humidity 94%
Rainfall 0.00 in
Snow Depth Not available.
UV 0 out of 12
Pollen Not available.
Air Quality Not available.
Flu Activity Not available.
METAR DGAA 020400Z 25005KT 9999 SCT007 24/23 Q1013 NOSIG

More Conditions Fewer Conditions

10-Day Weather Forecast

Almanac

Astronomy

Oct. 02, 2014 Rise Set
Actual Time 5:51 AM GMT 5:55 PM GMT
Civil Twilight 5:30 AM GMT 6:15 PM GMT
Nautical Twilight 5:06 AM GMT 6:39 PM GMT
Astronomical Twilight 4:42 AM GMT 7:04 PM GMT
Moon 12:45 PM GMT 12:00 AM GMT
Length of Visible Light 12h 45m
Length of Day
12h 03m
Tomorrow will be 0m 19s shorter.
First Quarter, 54% of the Moon is Illuminated
Today
First Quarter
Oct 8
Full
Oct 15
Last Quarter
Oct 23
New
Oct 30
First Quarter

Yesterday's Extremes

Country Highs Country Lows

Community

WunderPhotos

Upload Photos

1,758,186 photos uploaded!

Nearby

Snow Depth

Not available.

Earthquake Activity

City Distance Mag. Time & Date
No recent earthquake activity has been reported nearby.
Minimum magnitude displayed is 2.5.

Coastal Water Temperatures

Place Temperature
No Stations Reporting

Nearby Weather Stations